Time;durP1;ratioP1;P1;durP2;ratioP2;P2;SDS_P1;SDS_P2;PMS_P1;PMS_P2;Temp;Humidity;BMP_temperature;BMP_pressure;BME280_temperature;BME280_humidity;BME280_pressure;Samples;Min_cycle;Max_cycle;Signal;HPM_P1;HPM_P2
2021/04/13 00:02:33;;;;;;;7.27;5.97;;;;;;;5.20;72.02;101234.88;5069372;27;97105;-80
2021/04/13 00:05:07;;;;;;;7.73;6.03;;;;;;;5.20;71.49;101234.88;5043903;27;97097;-76
2021/04/13 00:07:35;;;;;;;10.90;7.13;;;;;;;5.21;71.09;101227.06;5064810;27;97982;-73
2021/04/13 00:10:08;;;;;;;8.70;7.10;;;;;;;5.05;71.69;101232.22;5051803;27;101442;-73
2021/04/13 00:12:34;;;;;;;9.33;6.70;;;;;;;5.06;72.06;101232.25;5034217;27;96801;-73
2021/04/13 00:15:08;;;;;;;10.07;7.67;;;;;;;5.06;72.23;101232.25;5053089;27;96851;-74
2021/04/13 00:17:33;;;;;;;12.07;8.30;;;;;;;5.13;71.95;101236.59;5055383;27;98027;-73
2021/04/13 00:20:01;;;;;;;11.20;8.73;;;;;;;5.14;71.82;101237.44;5045174;27;101603;-73
2021/04/13 00:22:28;;;;;;;10.40;8.97;;;;;;;5.18;71.82;101227.06;5066805;27;96859;-77
2021/04/13 00:24:54;;;;;;;14.07;9.23;;;;;;;5.14;71.83;101233.13;5052762;27;97133;-73
2021/04/13 00:27:22;;;;;;;12.23;8.77;;;;;;;5.14;71.69;101232.25;5066245;27;98501;-73
2021/04/13 00:29:48;;;;;;;11.00;8.03;;;;;;;5.12;71.84;101233.97;5042846;27;98495;-74
2021/04/13 00:32:13;;;;;;;11.67;7.93;;;;;;;5.13;71.83;101230.53;5035330;27;97253;-79
2021/04/13 00:34:56;;;;;;;9.77;7.73;;;;;;;5.08;71.92;101229.63;5066350;27;97294;-73
2021/04/13 00:37:30;;;;;;;11.13;7.97;;;;;;;5.12;72.01;101227.06;5050878;27;100973;-73
2021/04/13 00:40:22;;;;;;;11.87;8.20;;;;;;;5.12;71.92;101226.16;5074184;27;97275;-74
2021/04/13 00:42:49;;;;;;;11.20;7.23;;;;;;;5.16;71.73;101228.78;5055852;27;97106;-75
2021/04/13 00:45:19;;;;;;;11.73;8.13;;;;;;;5.17;71.93;101227.91;5057466;27;97433;-79
2021/04/13 00:47:46;;;;;;;11.90;8.07;;;;;;;5.23;71.73;101229.66;5036789;27;101446;-74
2021/04/13 00:50:23;;;;;;;13.20;8.27;;;;;;;5.24;71.93;101227.97;5058563;27;101456;-80
2021/04/13 00:52:52;;;;;;;14.90;8.90;;;;;;;5.21;72.08;101223.59;5063033;27;97255;-73
2021/04/13 00:55:19;;;;;;;11.97;9.43;;;;;;;5.17;71.65;101227.06;5024442;27;97334;-73
2021/04/13 00:57:48;;;;;;;15.37;8.77;;;;;;;5.17;71.62;101221.84;5053673;27;101609;-73
2021/04/13 01:00:37;;;;;;;11.93;8.33;;;;;;;5.14;71.71;101224.44;5054945;27;101140;-80
2021/04/13 01:03:04;;;;;;;15.00;8.90;;;;;;;5.17;71.34;101233.13;5046543;27;97155;-73
2021/04/13 01:05:45;;;;;;;10.20;8.37;;;;;;;5.07;71.68;101233.13;5039724;27;97809;-74
2021/04/13 01:08:35;;;;;;;9.90;6.77;;;;;;;5.19;70.92;101235.75;5046119;27;101543;-74
2021/04/13 01:11:18;;;;;;;11.43;6.70;;;;;;;5.07;70.92;101238.31;5038175;27;97858;-77
2021/04/13 01:13:51;;;;;;;9.83;5.57;;;;;;;5.06;70.82;101239.16;5058724;27;97070;-73
2021/04/13 01:16:21;;;;;;;8.20;5.80;;;;;;;5.09;71.02;101242.66;5058299;27;97345;-77
2021/04/13 01:18:51;;;;;;;7.50;5.70;;;;;;;5.08;70.67;101237.44;5058116;27;99832;-74
2021/04/13 01:21:45;;;;;;;9.00;5.43;;;;;;;5.02;70.50;101240.88;5075268;27;98087;-80
2021/04/13 01:24:19;;;;;;;7.57;5.10;;;;;;;5.06;70.51;101237.44;5069254;27;97107;-73
2021/04/13 01:26:47;;;;;;;7.97;4.80;;;;;;;5.06;70.46;101239.16;5039937;27;96972;-75
2021/04/13 01:29:15;;;;;;;6.80;4.90;;;;;;;5.07;70.27;101243.53;5070506;27;97738;-79
2021/04/13 01:31:46;;;;;;;7.17;4.67;;;;;;;4.99;69.84;101246.94;5058031;27;98617;-74
2021/04/13 01:34:40;;;;;;;6.87;4.73;;;;;;;5.06;70.18;101249.56;5055508;27;97208;-73
2021/04/13 01:37:08;;;;;;;7.70;3.93;;;;;;;4.98;69.23;101241.75;5060146;27;96691;-73
2021/04/13 01:39:43;;;;;;;11.23;5.03;;;;;;;4.99;69.61;101246.09;5074409;27;98583;-73
2021/04/13 01:42:09;;;;;;;7.23;4.50;;;;;;;4.95;69.75;101249.56;5038796;27;100958;-73
2021/04/13 01:44:36;;;;;;;9.23;4.60;;;;;;;4.94;70.10;101250.41;5074598;27;96778;-74
2021/04/13 01:47:03;;;;;;;7.10;4.53;;;;;;;4.95;70.42;101266.03;5055140;27;96822;-73
2021/04/13 01:49:31;;;;;;;8.80;5.00;;;;;;;4.94;70.72;101263.41;5056930;27;101520;-73
2021/04/13 01:51:57;;;;;;;7.43;4.90;;;;;;;4.94;70.85;101253.00;5063795;27;97633;-76
2021/04/13 01:54:23;;;;;;;8.87;5.40;;;;;;;4.84;70.08;101256.44;5056496;27;97139;-73
2021/04/13 01:57:02;;;;;;;7.93;6.13;;;;;;;4.74;70.75;101264.22;5058170;27;97124;-74
2021/04/13 01:59:37;;;;;;;9.07;5.67;;;;;;;4.77;70.81;101265.97;5057266;27;97878;-74
2021/04/13 02:02:08;;;;;;;9.77;5.73;;;;;;;4.75;70.59;101262.47;5057961;27;98055;-73
2021/04/13 02:04:45;;;;;;;7.75;5.80;;;;;;;4.79;70.64;101264.22;5049447;27;97285;-73
2021/04/13 02:07:51;;;;;;;8.47;5.43;;;;;;;4.79;70.67;101255.53;5046307;27;96975;-76
2021/04/13 02:10:42;;;;;;;7.47;5.57;;;;;;;4.73;70.93;101257.25;5052601;27;101700;-80
2021/04/13 02:13:16;;;;;;;10.70;6.13;;;;;;;4.73;70.75;101259.84;5045706;27;100956;-78
2021/04/13 02:15:47;;;;;;;10.90;6.43;;;;;;;4.67;70.98;101261.56;5056851;27;96876;-73
2021/04/13 02:18:35;;;;;;;10.37;6.23;;;;;;;4.73;70.48;101265.06;5070000;27;97732;-77
2021/04/13 02:21:04;;;;;;;10.23;6.57;;;;;;;4.75;70.79;101260.72;5083550;27;97937;-75
2021/04/13 02:23:31;;;;;;;9.40;6.83;;;;;;;4.69;71.00;101262.44;5056210;27;97894;-73
2021/04/13 02:26:01;;;;;;;8.87;6.87;;;;;;;4.72;70.42;101263.31;5040422;27;96696;-75
2021/04/13 02:28:28;;;;;;;11.37;7.67;;;;;;;4.70;70.64;101269.38;5053230;27;97400;-76
2021/04/13 02:30:54;;;;;;;14.23;6.90;;;;;;;4.73;70.84;101257.25;5056668;27;100601;-74
2021/04/13 02:33:35;;;;;;;10.87;6.83;;;;;;;4.76;71.18;101257.25;5072389;27;98486;-74
2021/04/13 02:36:18;;;;;;;10.30;7.73;;;;;;;4.86;70.55;101254.69;5074604;27;96822;-74
2021/04/13 02:38:53;;;;;;;13.20;7.60;;;;;;;4.85;71.21;101250.38;5074103;27;96749;-73
2021/04/13 02:41:41;;;;;;;11.43;7.70;;;;;;;4.84;70.76;101261.66;5072868;27;98164;-74
2021/04/13 02:44:10;;;;;;;9.63;7.53;;;;;;;4.75;70.79;101252.06;5050937;27;97651;-77
2021/04/13 02:46:37;;;;;;;8.47;6.10;;;;;;;4.73;70.88;101251.19;5038645;27;96850;-73
2021/04/13 02:49:06;;;;;;;9.13;6.13;;;;;;;4.73;70.52;101252.03;5049864;27;96815;-74
2021/04/13 02:51:33;;;;;;;12.17;5.40;;;;;;;4.80;70.52;101255.56;5038499;27;101091;-74
2021/04/13 02:54:00;;;;;;;10.57;4.90;;;;;;;4.83;70.30;101258.19;5072659;27;97512;-73
2021/04/13 02:56:32;;;;;;;6.37;4.20;;;;;;;4.87;69.47;101252.13;5056466;27;96965;-77
2021/04/13 02:59:13;;;;;;;10.23;4.30;;;;;;;4.80;70.11;101257.28;5056959;27;97174;-79
2021/04/13 03:01:41;;;;;;;5.43;3.90;;;;;;;4.79;69.99;101245.13;5052789;27;101162;-74
2021/04/13 03:04:08;;;;;;;8.80;4.20;;;;;;;4.77;70.15;101250.34;5056748;27;97943;-73
2021/04/13 03:06:46;;;;;;;5.97;3.83;;;;;;;4.81;70.02;101252.09;5053946;27;97026;-77
2021/04/13 03:09:13;;;;;;;6.40;3.50;;;;;;;4.82;69.43;101245.16;5066167;27;97832;-79
2021/04/13 03:11:44;;;;;;;5.30;4.33;;;;;;;4.76;69.01;101243.38;5042648;27;97955;-75
2021/04/13 03:14:10;;;;;;;5.43;3.60;;;;;;;4.75;69.28;101228.66;5041676;27;100965;-73
2021/04/13 03:16:41;;;;;;;6.07;3.43;;;;;;;4.76;68.71;101232.97;5051742;27;97375;-73
2021/04/13 03:19:10;;;;;;;7.90;3.60;;;;;;;4.78;69.03;101231.28;5052990;27;97221;-74
2021/04/13 03:21:37;;;;;;;6.70;3.50;;;;;;;4.71;69.27;101232.09;5072983;27;98027;-73
2021/04/13 03:24:08;;;;;;;6.77;3.20;;;;;;;4.62;69.93;101224.25;5073069;27;97861;-73
2021/04/13 03:26:42;;;;;;;5.93;3.30;;;;;;;4.67;69.82;101232.94;5073419;27;97213;-73
2021/04/13 03:29:16;;;;;;;5.07;3.33;;;;;;;4.69;69.46;101224.28;5053311;27;96722;-76
2021/04/13 03:31:41;;;;;;;5.03;3.13;;;;;;;4.69;69.38;101234.69;5045763;27;98019;-73
2021/04/13 03:34:07;;;;;;;5.60;3.60;;;;;;;4.70;69.47;101233.81;5038225;27;100767;-73
2021/04/13 03:36:34;;;;;;;7.20;3.63;;;;;;;4.68;69.07;101235.56;5042844;27;97357;-73
2021/04/13 03:39:07;;;;;;;7.73;4.40;;;;;;;4.58;69.27;101227.72;5070069;27;97174;-76
2021/04/13 03:41:34;;;;;;;8.60;4.60;;;;;;;4.52;69.62;101229.41;5072760;27;97980;-73
2021/04/13 03:44:02;;;;;;;9.27;4.60;;;;;;;4.48;69.90;101231.97;5072739;27;98414;-73
2021/04/13 03:46:33;;;;;;;10.23;4.73;;;;;;;4.30;70.34;101228.44;5055480;27;97052;-74
2021/04/13 03:48:59;;;;;;;7.95;4.20;;;;;;;4.23;71.11;101237.03;5057922;27;97255;-78
2021/04/13 03:51:32;;;;;;;8.80;4.07;;;;;;;4.25;71.22;101237.94;5053049;27;102006;-76
2021/04/13 03:53:58;;;;;;;8.27;4.40;;;;;;;4.29;70.61;101246.59;5041778;27;101408;-73
2021/04/13 03:56:25;;;;;;;8.60;5.20;;;;;;;4.29;71.22;101237.06;5041473;27;97017;-73
2021/04/13 03:58:55;;;;;;;6.63;4.70;;;;;;;4.31;70.35;101244.91;5077042;27;97163;-75
2021/04/13 04:01:25;;;;;;;12.80;4.67;;;;;;;4.36;70.99;101252.69;5054905;27;101387;-74
2021/04/13 04:04:00;;;;;;;9.87;5.63;;;;;;;4.28;70.79;101243.16;5044685;27;100818;-73
2021/04/13 04:06:52;;;;;;;12.73;6.23;;;;;;;4.28;71.11;101248.34;5058178;27;97109;-73
2021/04/13 04:09:36;;;;;;;14.15;7.65;;;;;;;4.39;71.03;101250.97;5040064;27;96798;-80
2021/04/13 04:12:13;;;;;;;14.13;7.93;;;;;;;4.38;70.80;101259.66;5061049;27;101070;-73
2021/04/13 04:14:39;;;;;;;13.23;8.63;;;;;;;4.41;70.61;101261.41;5054540;27;101385;-73
2021/04/13 04:17:14;;;;;;;10.93;6.03;;;;;;;4.47;70.86;101264.03;5050621;27;97399;-73
2021/04/13 04:19:40;;;;;;;14.17;6.57;;;;;;;4.44;70.71;101267.50;5056155;27;97563;-74
2021/04/13 04:22:14;;;;;;;12.20;6.30;;;;;;;4.47;71.22;101272.72;5024683;27;101318;-73
2021/04/13 04:24:43;;;;;;;11.33;6.67;;;;;;;4.52;71.04;101281.41;5051054;27;101262;-73
2021/04/13 04:27:15;;;;;;;12.37;6.77;;;;;;;4.50;70.68;101277.94;5058754;27;97036;-73
2021/04/13 04:29:52;;;;;;;9.45;7.03;;;;;;;4.52;70.67;101293.56;5075686;27;97376;-73
2021/04/13 04:32:21;;;;;;;10.53;6.90;;;;;;;4.56;71.04;101303.09;5039581;27;101219;-80
2021/04/13 04:34:50;;;;;;;11.43;7.27;;;;;;;4.60;70.77;101301.41;5058232;27;97310;-73
2021/04/13 04:37:29;;;;;;;9.93;6.77;;;;;;;4.55;70.99;101296.16;5055161;27;97321;-74
2021/04/13 04:40:18;;;;;;;12.73;7.43;;;;;;;4.53;70.90;101300.47;5075021;27;97107;-76
2021/04/13 04:42:56;;;;;;;11.13;7.30;;;;;;;4.56;71.29;101303.09;5075523;27;101379;-74
2021/04/13 04:45:32;;;;;;;11.57;7.37;;;;;;;4.61;71.66;101305.75;5071411;27;101114;-76
2021/04/13 04:47:58;;;;;;;13.60;6.90;;;;;;;4.64;70.95;101306.63;5056219;27;96766;-73
2021/04/13 04:50:24;;;;;;;13.10;7.70;;;;;;;4.67;70.76;101308.38;5055358;27;96925;-73
2021/04/13 04:52:49;;;;;;;11.10;7.43;;;;;;;4.73;70.94;101318.81;5053530;27;101299;-75
2021/04/13 04:55:16;;;;;;;13.27;8.67;;;;;;;4.71;71.20;101315.31;5042900;27;98596;-73
2021/04/13 04:57:42;;;;;;;15.90;9.93;;;;;;;4.75;70.85;101311.91;5034223;27;97288;-74
2021/04/13 05:00:09;;;;;;;15.27;9.27;;;;;;;4.78;70.84;101309.31;5072048;27;97222;-73
2021/04/13 05:02:34;;;;;;;13.40;10.00;;;;;;;4.86;70.98;101301.53;5042109;27;101490;-73
2021/04/13 05:05:01;;;;;;;13.53;9.90;;;;;;;4.89;70.83;101301.56;5036078;27;99917;-75
2021/04/13 05:07:26;;;;;;;14.50;9.60;;;;;;;4.91;71.33;101305.88;5047850;27;97025;-73
2021/04/13 05:09:52;;;;;;;9.90;8.10;;;;;;;4.87;71.09;101304.16;5037547;27;97219;-73
2021/04/13 05:12:17;;;;;;;11.80;7.93;;;;;;;4.85;71.06;101307.59;5054765;27;97997;-81
2021/04/13 05:14:43;;;;;;;11.73;7.80;;;;;;;4.87;70.92;101301.53;5047683;27;101806;-73
2021/04/13 05:17:09;;;;;;;15.17;8.10;;;;;;;4.90;70.64;101300.69;5050472;27;96952;-73
2021/04/13 05:19:34;;;;;;;12.77;8.37;;;;;;;4.97;70.62;101305.06;5037009;27;97193;-73
2021/04/13 05:22:00;;;;;;;12.80;8.50;;;;;;;4.96;70.61;101298.97;5035325;27;101281;-73
2021/04/13 05:24:25;;;;;;;14.07;8.90;;;;;;;5.01;70.59;101293.81;5060075;27;101113;-74
2021/04/13 05:26:51;;;;;;;13.23;9.30;;;;;;;5.03;70.68;101299.88;5072658;27;97204;-73
2021/04/13 05:29:16;;;;;;;13.80;9.60;;;;;;;5.17;70.49;101294.72;5051853;27;97377;-74
2021/04/13 05:31:42;;;;;;;11.47;8.03;;;;;;;5.14;70.79;101303.38;5035987;27;101024;-73
2021/04/13 05:34:12;;;;;;;10.90;8.20;;;;;;;5.21;70.80;101294.75;5046502;27;101448;-73
2021/04/13 05:36:38;;;;;;;14.33;8.47;;;;;;;5.29;70.57;101296.50;5047096;27;96745;-73
2021/04/13 05:39:04;;;;;;;13.33;7.63;;;;;;;5.28;70.39;101295.63;5054078;27;96882;-75
2021/04/13 05:41:30;;;;;;;13.90;6.87;;;;;;;5.32;69.53;101296.50;5048785;27;101179;-73
2021/04/13 05:43:56;;;;;;;9.37;6.57;;;;;;;5.29;69.69;101289.56;5045810;27;101070;-74
2021/04/13 05:46:27;;;;;;;10.77;7.50;;;;;;;5.31;70.48;101293.03;5053411;27;97087;-78
2021/04/13 05:48:53;;;;;;;14.00;6.73;;;;;;;5.29;71.01;101289.56;5030872;27;97345;-74
2021/04/13 05:51:19;;;;;;;12.80;7.93;;;;;;;5.42;70.24;101293.09;5046340;27;100160;-80
2021/04/13 05:53:45;;;;;;;18.63;8.50;;;;;;;5.47;70.36;101304.38;5067311;27;98490;-73
2021/04/13 05:56:18;;;;;;;10.53;7.47;;;;;;;5.64;69.97;101304.41;5021110;27;97570;-74
2021/04/13 05:58:46;;;;;;;12.73;7.50;;;;;;;5.53;68.71;101311.34;5067695;27;97010;-77
2021/04/13 06:01:12;;;;;;;10.47;6.30;;;;;;;5.54;68.34;101318.28;5030391;27;101010;-74
2021/04/13 06:03:38;;;;;;;9.17;5.93;;;;;;;5.64;68.53;101326.13;5051364;27;98254;-76
2021/04/13 06:06:04;;;;;;;13.23;6.67;;;;;;;5.70;68.17;101321.78;5057917;27;96826;-73
2021/04/13 06:08:29;;;;;;;9.80;6.90;;;;;;;5.69;68.37;101326.13;5033226;27;97224;-75
2021/04/13 06:10:58;;;;;;;10.67;6.70;;;;;;;5.65;68.44;101334.81;5048989;27;97371;-75
2021/04/13 06:13:25;;;;;;;11.07;7.00;;;;;;;5.67;68.62;101335.66;5036296;27;101411;-75
2021/04/13 06:15:52;;;;;;;12.63;8.83;;;;;;;5.76;67.98;101333.09;5066420;27;97039;-75
2021/04/13 06:18:18;;;;;;;9.23;6.33;;;;;;;5.82;67.59;101327.91;5049417;27;96876;-77
2021/04/13 06:20:44;;;;;;;16.20;7.50;;;;;;;5.98;67.41;101333.16;5070262;27;97899;-74
2021/04/13 06:23:10;;;;;;;11.40;7.77;;;;;;;6.05;67.35;101327.06;5042868;27;101484;-74
2021/04/13 06:25:36;;;;;;;11.60;6.47;;;;;;;6.22;67.61;101325.34;5065122;27;97081;-76
2021/04/13 06:28:02;;;;;;;11.77;6.80;;;;;;;6.32;66.74;101324.47;5063557;27;97117;-74
2021/04/13 06:30:29;;;;;;;9.93;6.47;;;;;;;6.28;66.72;101327.97;5047161;27;98589;-74
2021/04/13 06:32:57;;;;;;;13.97;7.13;;;;;;;6.22;66.28;101330.53;5037736;27;101530;-76
2021/04/13 06:35:22;;;;;;;10.60;6.20;;;;;;;6.32;65.95;101331.44;5045741;27;96961;-73
2021/04/13 06:37:50;;;;;;;11.50;7.07;;;;;;;6.27;65.69;101336.63;5062424;27;97278;-75
2021/04/13 06:40:54;;;;;;;12.93;6.97;;;;;;;6.29;65.76;101340.13;5044532;27;101579;-75
2021/04/13 06:43:19;;;;;;;12.90;7.10;;;;;;;6.25;65.63;101354.00;5045735;27;101847;-78
2021/04/13 06:46:06;;;;;;;12.63;7.00;;;;;;;6.31;64.97;101351.44;5062145;27;97320;-74
2021/04/13 06:49:19;;;;;;;11.05;7.13;;;;;;;6.27;64.95;101347.06;5068012;27;97330;-74
2021/04/13 06:52:03;;;;;;;9.07;6.20;;;;;;;6.32;65.15;101347.94;5001535;27;101329;-76
2021/04/13 06:54:41;;;;;;;11.03;6.50;;;;;;;6.46;64.89;101347.09;5021799;27;98769;-75
2021/04/13 06:57:27;;;;;;;14.50;7.23;;;;;;;6.30;65.27;101338.38;5009413;28;97295;-76
2021/04/13 07:00:00;;;;;;;10.77;6.63;;;;;;;6.43;65.40;101347.94;4985071;28;97558;-74
2021/04/13 07:02:30;;;;;;;9.83;5.67;;;;;;;6.45;64.93;101342.72;5016502;28;98027;-77
2021/04/13 07:04:58;;;;;;;10.60;6.90;;;;;;;6.55;64.54;101344.47;5007740;28;98034;-77
2021/04/13 07:07:29;;;;;;;9.73;5.83;;;;;;;6.69;63.91;101333.97;5008860;28;97380;-80
2021/04/13 07:10:25;;;;;;;6.60;4.90;;;;;;;6.79;63.90;101336.56;4991162;28;97384;-76
2021/04/13 07:13:08;;;;;;;11.17;5.47;;;;;;;6.76;64.37;101340.94;4980264;28;101667;-73
2021/04/13 07:15:44;;;;;;;9.27;4.80;;;;;;;6.73;64.99;101331.38;4988125;28;102305;-74
2021/04/13 07:18:23;;;;;;;12.60;5.60;;;;;;;6.83;64.32;101326.13;5000977;28;97302;-75
2021/04/13 07:21:09;;;;;;;11.33;5.87;;;;;;;6.86;65.11;101315.69;5024089;28;96704;-74
2021/04/13 07:23:37;;;;;;;10.97;6.27;;;;;;;6.92;64.24;101315.66;5033892;27;98260;-72
2021/04/13 07:26:31;;;;;;;14.17;6.37;;;;;;;6.90;64.68;101320.91;5060090;27;102323;-73
2021/04/13 07:29:09;;;;;;;8.67;6.00;;;;;;;7.05;64.29;101324.34;5039689;27;97287;-72
2021/04/13 07:31:59;;;;;;;14.10;6.37;;;;;;;6.99;63.82;101325.22;5035650;27;96852;-73
2021/04/13 07:34:25;;;;;;;12.53;6.60;;;;;;;6.99;63.69;101333.06;5057089;27;98028;-74
2021/04/13 07:37:10;;;;;;;11.40;6.27;;;;;;;6.91;64.31;101333.06;5061865;27;98624;-74
2021/04/13 07:39:38;;;;;;;12.07;5.87;;;;;;;6.96;64.26;101335.66;5063440;27;97224;-79
2021/04/13 07:42:09;;;;;;;10.63;6.20;;;;;;;7.06;63.75;101329.53;5068614;27;97219;-76
2021/04/13 07:45:12;;;;;;;14.00;7.00;;;;;;;7.14;64.13;101335.59;5021927;27;101022;-74
2021/04/13 07:48:15;;;;;;;10.17;6.40;;;;;;;7.30;63.83;101320.75;5085549;27;98057;-74
2021/04/13 07:51:11;;;;;;;9.35;6.10;;;;;;;7.34;63.92;101319.84;5053336;27;97333;-75
2021/04/13 07:54:02;;;;;;;12.27;6.18;;;;;;;7.25;64.37;101333.81;5067959;27;97075;-74
2021/04/13 07:56:50;;;;;;;13.10;6.90;;;;;;;7.36;64.63;101336.38;5069494;27;98024;-75
2021/04/13 07:59:41;;;;;;;10.32;5.90;;;;;;;7.34;63.87;101338.13;5045883;27;101636;-80
2021/04/13 08:02:07;;;;;;;10.45;5.43;;;;;;;7.43;64.26;101335.47;5052771;27;97031;-78
2021/04/13 08:04:34;;;;;;;9.32;5.97;;;;;;;7.51;63.46;101337.19;5071009;27;97521;-74
2021/04/13 08:07:11;;;;;;;10.52;6.25;;;;;;;7.74;62.84;101340.53;5066853;27;100880;-74
2021/04/13 08:09:55;;;;;;;13.57;6.63;;;;;;;7.68;62.55;101332.75;5048044;27;100899;-74
2021/04/13 08:12:34;;;;;;;9.60;6.22;;;;;;;7.85;62.34;101340.44;5047507;27;97340;-74
2021/04/13 08:15:03;;;;;;;10.55;7.07;;;;;;;7.85;61.77;101348.28;5049098;27;96913;-80
2021/04/13 08:17:33;;;;;;;10.55;6.20;;;;;;;7.97;61.39;101350.84;5068334;27;102165;-73
2021/04/13 08:20:05;;;;;;;10.55;5.50;;;;;;;8.25;61.32;101346.25;5069341;27;97731;-74
2021/04/13 08:22:50;;;;;;;9.05;6.10;;;;;;;8.64;59.37;101343.31;5051566;27;97507;-74
2021/04/13 08:25:34;;;;;;;13.55;6.32;;;;;;;8.62;59.78;101353.81;5053384;27;96773;-73
2021/04/13 08:28:15;;;;;;;10.70;6.28;;;;;;;9.15;58.57;101343.66;5067585;27;101311;-74
2021/04/13 08:32:49;;;;;;;13.85;6.65;;;;;;;9.68;57.58;101342.09;5048647;27;97893;-74
2021/04/13 08:34:01;;;;;;;13.80;6.88;;;;;;;11.21;54.84;101330.72;5082315;27;97243;-74
2021/04/13 08:36:33;;;;;;;14.25;6.40;;;;;;;12.50;52.73;101339.16;5054276;27;97517;-82
2021/04/13 08:39:04;;;;;;;13.13;5.88;;;;;;;13.19;50.76;101324.09;5054644;27;101417;-75
2021/04/13 08:41:44;;;;;;;13.52;6.18;;;;;;;13.37;50.63;101333.25;5051300;27;99280;-74
2021/04/13 08:44:55;;;;;;;15.85;6.43;;;;;;;12.89;49.88;101331.97;5041807;27;96788;-73
2021/04/13 08:47:39;;;;;;;8.48;5.38;;;;;;;12.55;49.78;101331.16;5005657;28;97480;-73
2021/04/13 08:50:31;;;;;;;9.20;4.90;;;;;;;13.92;47.00;101321.00;4949822;28;101702;-76
2021/04/13 08:52:58;;;;;;;;;;;;;;;12.48;49.15;101326.94;4981914;28;101125;-74
2021/04/13 08:55:49;;;;;;;13.23;4.13;;;;;;;13.06;47.43;101320.06;4976905;28;97089;-79
2021/04/13 08:58:17;;;;;;;7.50;4.93;;;;;;;13.39;47.95;101318.28;4996132;28;97624;-74
2021/04/13 09:00:45;;;;;;;8.20;4.60;;;;;;;13.17;47.29;101318.00;5011279;28;98887;-73
2021/04/13 09:03:16;;;;;;;15.15;4.80;;;;;;;12.74;48.86;101313.06;5001345;28;97879;-73
2021/04/13 09:05:43;;;;;;;8.70;4.90;;;;;;;12.31;49.61;101316.84;4988495;28;97290;-74
2021/04/13 09:08:46;;;;;;;12.27;5.88;;;;;;;12.10;49.61;101316.47;4970253;28;97094;-74
2021/04/13 09:11:28;;;;;;;7.65;4.20;;;;;;;12.47;48.73;101318.16;4990438;28;101235;-74
2021/04/13 09:14:23;;;;;;;12.05;4.13;;;;;;;12.49;48.71;101312.88;4990485;28;97892;-74
2021/04/13 09:17:03;;;;;;;20.15;4.38;;;;;;;12.10;48.22;101316.47;4976812;28;97490;-73
2021/04/13 09:19:35;;;;;;;10.07;4.90;;;;;;;12.07;48.24;101318.31;5072146;27;96788;-78
2021/04/13 09:22:20;;;;;;;11.80;4.35;;;;;;;12.21;48.13;101321.47;5074363;27;98384;-74
2021/04/13 09:24:47;;;;;;;11.65;4.25;;;;;;;11.93;49.02;101321.28;5057152;27;101014;-74
2021/04/13 09:27:34;;;;;;;19.00;3.88;;;;;;;11.97;48.58;101321.16;5093986;27;96999;-73
2021/04/13 09:30:20;;;;;;;7.82;3.65;;;;;;;12.18;47.53;101319.75;5058608;27;97274;-74
2021/04/13 09:32:48;;;;;;;8.70;2.92;;;;;;;11.95;46.77;101315.06;5070073;27;98858;-74
2021/04/13 09:35:29;;;;;;;8.10;2.85;;;;;;;11.93;46.70;101318.66;5057208;27;101157;-73
2021/04/13 09:38:21;;;;;;;13.25;3.72;;;;;;;12.16;46.41;101311.06;5055974;27;97361;-75
2021/04/13 09:41:10;;;;;;;6.72;3.05;;;;;;;12.50;46.45;101309.31;5087118;27;97356;-73
2021/04/13 09:43:50;;;;;;;9.45;2.92;;;;;;;12.49;45.34;101310.25;5054574;27;98052;-78
2021/04/13 09:46:53;;;;;;;10.23;2.78;;;;;;;12.93;45.75;101301.13;5047056;27;97868;-74
2021/04/13 09:49:33;;;;;;;7.45;3.13;;;;;;;12.92;45.82;101304.66;5071873;27;97326;-77
2021/04/13 09:52:42;;;;;;;12.85;4.03;;;;;;;12.46;45.15;101304.13;5090520;27;97825;-75
2021/04/13 09:55:28;;;;;;;7.00;2.95;;;;;;;11.60;45.89;101307.09;5054403;27;101173;-73
2021/04/13 09:58:17;;;;;;;15.35;3.50;;;;;;;11.49;46.78;101299.44;5055439;27;98632;-74
2021/04/13 10:01:07;;;;;;;6.55;2.88;;;;;;;11.32;46.54;101294.59;5045697;27;97525;-79
2021/04/13 10:03:39;;;;;;;5.60;2.70;;;;;;;11.37;47.05;101289.19;5050188;27;97018;-74
2021/04/13 10:06:06;;;;;;;6.90;2.70;;;;;;;11.40;47.67;101281.25;5079251;27;98191;-78
2021/04/13 10:08:36;;;;;;;13.05;3.60;;;;;;;11.18;47.22;101284.34;5070858;27;98985;-74
2021/04/13 10:11:08;;;;;;;8.57;3.22;;;;;;;11.26;47.33;101279.81;5054456;27;97108;-74
2021/04/13 10:13:55;;;;;;;11.02;3.33;;;;;;;11.13;47.63;101278.31;5070958;27;97672;-77
2021/04/13 10:16:30;;;;;;;10.10;3.25;;;;;;;11.07;47.13;101274.06;5063338;27;98235;-74
2021/04/13 10:19:09;;;;;;;10.20;3.00;;;;;;;10.85;48.33;101278.91;5054657;27;97338;-77
2021/04/13 10:22:03;;;;;;;8.32;3.28;;;;;;;10.42;49.42;101278.84;5087256;27;97152;-74
2021/04/13 10:24:44;;;;;;;6.05;2.78;;;;;;;10.27;49.59;101280.00;5042887;27;97564;-74
2021/04/13 10:27:21;;;;;;;7.78;3.08;;;;;;;10.15;50.51;101275.78;5068935;27;97960;-75
2021/04/13 10:30:27;;;;;;;6.90;2.72;;;;;;;10.16;49.75;101274.03;5068800;27;101075;-74
2021/04/13 10:33:29;;;;;;;8.10;3.28;;;;;;;10.42;50.06;101274.47;5027807;27;97656;-76
2021/04/13 10:36:09;;;;;;;12.70;3.00;;;;;;;10.78;50.06;101273.78;5069007;27;97210;-77
2021/04/13 10:39:09;;;;;;;8.73;2.75;;;;;;;11.10;49.05;101275.75;5063337;27;99471;-74
2021/04/13 10:41:53;;;;;;;7.43;3.17;;;;;;;11.35;48.85;101262.97;5051256;27;101389;-74
2021/04/13 10:44:43;;;;;;;13.13;3.45;;;;;;;11.07;48.42;101262.69;5062417;27;97598;-73
2021/04/13 10:47:39;;;;;;;9.57;3.10;;;;;;;10.65;49.63;101265.31;5085412;27;97358;-73
2021/04/13 10:50:36;;;;;;;15.05;4.55;;;;;;;10.35;48.52;101272.81;5039760;27;101377;-73
2021/04/13 10:53:39;;;;;;;5.22;2.97;;;;;;;10.00;48.10;101278.66;5069424;27;97447;-73
2021/04/13 10:56:09;;;;;;;7.07;2.58;;;;;;;9.77;49.25;101265.91;5049624;27;97257;-73
2021/04/13 10:58:56;;;;;;;5.53;2.97;;;;;;;9.75;49.63;101265.09;5070725;27;97207;-73
2021/04/13 11:01:41;;;;;;;5.25;2.58;;;;;;;9.61;49.01;101267.06;5065171;27;97169;-75
2021/04/13 11:04:21;;;;;;;12.85;2.92;;;;;;;9.66;49.36;101260.00;5067099;27;101951;-77
2021/04/13 11:07:17;;;;;;;9.43;3.20;;;;;;;9.73;48.99;101259.00;5088948;27;96624;-72
2021/04/13 11:10:02;;;;;;;9.02;2.58;;;;;;;9.89;47.87;101257.88;5038971;27;97491;-73
2021/04/13 11:12:51;;;;;;;9.73;2.95;;;;;;;10.10;46.59;101246.13;5053099;27;97528;-72
2021/04/13 11:15:52;;;;;;;8.63;2.75;;;;;;;10.36;46.37;101247.47;5052652;27;101254;-73
2021/04/13 11:18:23;;;;;;;5.80;2.80;;;;;;;10.52;45.85;101241.03;5074799;27;96955;-73
2021/04/13 11:21:13;;;;;;;3.53;1.90;;;;;;;10.42;44.53;101236.84;5089209;27;97247;-73
2021/04/13 11:24:12;;;;;;;9.00;3.00;;;;;;;10.47;45.82;101240.28;5052343;27;101431;-73
2021/04/13 11:27:09;;;;;;;8.40;2.10;;;;;;;10.11;45.12;101237.38;5062827;27;101189;-73
2021/04/13 11:29:44;;;;;;;14.48;4.55;;;;;;;10.16;44.45;101238.16;5050714;27;98126;-73
2021/04/13 11:32:43;;;;;;;11.30;2.42;;;;;;;10.23;44.90;101224.94;5052932;27;97372;-73
2021/04/13 11:35:14;;;;;;;3.70;1.77;;;;;;;10.37;43.84;101229.06;5050860;27;101389;-73
2021/04/13 11:37:43;;;;;;;4.22;2.33;;;;;;;10.58;43.30;101235.66;5062266;27;97915;-73
2021/04/13 11:40:23;;;;;;;7.32;3.38;;;;;;;10.77;43.09;101238.78;5070573;27;96942;-73
2021/04/13 11:42:51;;;;;;;6.90;2.33;;;;;;;10.78;43.96;101232.63;5056806;27;96805;-73
2021/04/13 11:45:32;;;;;;;27.92;4.78;;;;;;;10.95;43.87;101240.16;5045262;27;101588;-72
2021/04/13 11:48:07;;;;;;;4.70;2.35;;;;;;;10.95;42.33;101234.91;5035884;27;97820;-73
2021/04/13 11:50:33;;;;;;;5.40;2.15;;;;;;;11.04;41.89;101239.13;5027975;27;96931;-75
2021/04/13 11:53:07;;;;;;;6.82;2.42;;;;;;;11.21;41.17;101231.72;5065804;27;96951;-76
2021/04/13 11:55:34;;;;;;;6.07;1.88;;;;;;;11.12;41.02;101229.31;5064896;27;101305;-73
2021/04/13 11:58:23;;;;;;;8.32;2.53;;;;;;;11.26;42.14;101229.88;5047031;27;100898;-74
2021/04/13 12:00:53;;;;;;;7.55;2.72;;;;;;;11.46;42.01;101228.53;5023078;27;96983;-74
2021/04/13 12:03:19;;;;;;;24.40;3.40;;;;;;;11.54;41.65;101227.44;5039406;27;97964;-75
2021/04/13 12:05:46;;;;;;;5.00;2.38;;;;;;;11.40;40.67;101224.28;5055609;27;100821;-71